Paradise Valley, Nevada Weather observations

Data are for 10 minute period ending at time listed.
 Day   Time   Solar   Ave.   Ave.  Ave.  Vector  Max.   Baro.   Total    
  of    of     Rad.   Air    Rel.  Wind   Wind   Wind  Press.  Precip.   
Year   Day            Temp.  Hum.  Speed  Dir.   Gust                    
2015   (PST)  Kw/m2    F      %     mph   deg.    mph    mb.     in.     
-------------------------------------------------------------------------
 110    1:50   0.00   38.9    43    0.2    39     0.9   864.0    0.00 
 110    2:00   0.00   39.9    42    1.3    15     2.6   864.0    0.00 
 110    2:10   0.00   38.7    46    0.5    17     1.5   864.0    0.00 
 110    2:20   0.00   37.6    47    1.9    37     3.9   864.0    0.00 
 110    2:30   0.00   36.7    48    0.6   333     1.8   864.1    0.00 
 110    2:40   0.00   36.9    48    0.2   292     0.9   864.2    0.00 
 110    2:50   0.00   38.1    44    0.2   292     1.0   864.2    0.00 
 110    3:00   0.00   34.8    54    0.5   292     1.4   864.2    0.00 
 110    3:10   0.00   33.5    59    2.0   292     3.7   864.1    0.00 
 110    3:20   0.00   33.3    60    2.7   291     3.9   864.0    0.00 
 110    3:30   0.00   34.0    55    1.4   292     1.8   864.0    0.00 
 110    3:40   0.00   33.7    55    1.0   301     2.6   863.9    0.00 
 110    3:50   0.00   32.6    59    2.9   298     3.9   863.9    0.00 
 110    4:00   0.00   32.7    58    3.5   280     4.0   863.9    0.00 
 110    4:10   0.00   33.5    56    3.4   268     3.8   863.9    0.00 
 110    4:20   0.00   33.6    56    4.4   272     5.1   863.8    0.00 
 110    4:30   0.00   33.5    56    2.4   287     4.1   863.8    0.00 
 110    4:40   0.00   34.2    54    2.2   295     3.4   863.8    0.00 
 110    4:50   0.00   34.4    55    1.4   289     2.4   863.9    0.00 
 110    5:00   0.00   35.7    50    1.8   302     2.5   863.9    0.00 
 110    5:10   0.01   34.6    55    1.9   118     4.2   864.0    0.00 
 110    5:20   0.02   30.9    65    5.1   146     5.8   864.1    0.00 
 110    5:30   0.03   29.9    69    3.5   144     4.9   864.1    0.00 
 110    5:40   0.05   30.0    69    1.0   144     2.2   864.2    0.00 
 110    5:50   0.07   30.9    65    1.6   165     2.5   864.2    0.00 
 110    6:00   0.10   32.9    55    0.7   177     2.1   864.2    0.00 
 110    6:10   0.13   34.8    56    1.1   177     1.9   864.2    0.00 
 110    6:20   0.16   36.7    61    0.2   177     0.9   864.2    0.00 
 110    6:30   0.19   40.5    52    0.1   176     0.9   864.2    0.00 
 110    6:40   0.22   39.9    54    0.6   162     1.2   864.3    0.00 
 110    6:50   0.26   40.2    43    0.9    92     2.1   864.3    0.00 
 110    7:00   0.29   40.4    48    0.9     8     2.3   864.4    0.00 
 110    7:10   0.33   40.8    47    2.2   354     4.3   864.3    0.00 
 110    7:20   0.37   42.3    48    3.0   345     4.0   864.3    0.00 
 110    7:30   0.40   44.2    47    3.0   343     4.5   864.1    0.00 
 110    7:40   0.44   46.6    44    3.6   359     5.1   864.0    0.00 
 110    7:50   0.48   48.9    36    4.5   358     6.1   863.9    0.00 
 110    8:00   0.51   50.3    35    4.8     0     6.6   863.8    0.00 
 110    8:10   0.55   52.2    35    4.3     2     6.1   863.7    0.00 
 110    8:20   0.57   53.4    33    3.8    13     5.5   863.6    0.00 
 110    8:30   0.60   54.4    32    3.6   354     5.3   863.5    0.00 
 110    8:40   0.64   55.7    31    3.4   355     5.6   863.6    0.00 
 110    8:50   0.68   56.8    29    4.7    14     6.8   863.6    0.00 
 110    9:00   0.70   57.3    27    4.3    15     6.6   863.6    0.00 
 110    9:10   0.73   59.2    24    2.4     8     4.3   863.6    0.00 
 110    9:20   0.76   60.7    23    2.0   360     4.4   863.6    0.00 
 110    9:30   0.78   62.3    23    1.3   332     3.7   863.7    0.00 
 110    9:40   0.78   63.9    20    1.7   177     5.0   863.8    0.00 
 110    9:50   0.81   63.4    18    2.6   136     5.0   863.8    0.00 
 110   10:00   0.86   62.3    20    4.1   130     7.2   863.7    0.00 
 110   10:10   0.88   64.5    19    2.8   147     7.0   863.7    0.00 
 110   10:20   0.89   64.7    18    5.4   163     9.1   863.7    0.00 
 110   10:30   0.91   65.0    18    4.7   150     7.5   863.6    0.00 
 110   10:40   0.90   65.8    16    4.3   160     8.1   863.5    0.00 
 110   10:50   0.91   66.0    16    4.0   150     8.0   863.4    0.00 
 110   11:00   0.94   67.9    15    3.4   177     7.6   863.2    0.00 
 110   11:10   0.94   67.9    14    4.1   144     8.1   863.2    0.00 
 110   11:20   0.96   67.8    14    4.8   118     7.5   863.0    0.00 
 110   11:30   0.96   68.1    14    4.0   124     7.9   863.0    0.00 
 110   11:40   0.97   68.3    14    5.0   115     8.3   862.8    0.00 
 110   11:50   0.98   68.5    13    5.0   106     8.0   862.7    0.00 
 110   12:00   0.98   69.2    13    4.6    90    12.7   862.6    0.00 
 110   12:10   0.96   69.7    13    4.4    83     9.6   862.5    0.00 
 110   12:20   0.96   69.9    12    3.7    85     7.6   862.4    0.00 
 110   12:30   0.96   70.5    12    5.7    83    13.7   862.3    0.00 
 110   12:40   0.95   70.0    13    5.8   126    11.3   862.3    0.00 
 110   12:50   0.94   71.2    12    3.8   106     8.6   862.2    0.00 
 110   13:00   0.93   71.5    12    3.5   115     7.7   862.1    0.00 
 110   13:10   0.91   72.1    12    5.4   268    19.0   862.0    0.00 
 110   13:20   0.83   71.5    11    7.7   268    12.6   861.9    0.00 
 110   13:30   0.85   71.8    11    6.4   205    12.1   861.9    0.00 
 110   13:40   0.80   72.1    11    5.1   157    11.0   861.7    0.00 
 110   13:50   0.63   71.6    11    6.0   247     9.9   861.6    0.00 
 110   14:00   0.72   72.5    11    3.3   269    10.4   861.5    0.00 
 110   14:10   0.71   72.8    12    5.2   272    13.6   861.4    0.00 
 110   14:20   0.77   72.3    16    5.0   350    10.7   861.2    0.00 
 110   14:30   0.72   72.3    12    7.8   296    23.8   861.1    0.00 
 110   14:40   0.70   71.2    18    7.2   319    11.8   861.0    0.00 
 110   14:50   0.68   70.8    18    8.5   335    13.2   861.0    0.00 
 110   15:00   0.65   71.2    14    4.7   326    11.0   860.9    0.00 
 110   15:10   0.62   72.9    10    4.9   264    10.7   860.8    0.00 
 110   15:20   0.57   72.0    15    7.8   315    14.5   860.8    0.00 
 110   15:30   0.55   70.6    17    7.4   324    12.1   860.7    0.00 
 110   15:40   0.51   71.0    19    6.0   303    10.9   860.7    0.00 
 110   15:50   0.47   71.5    14    8.6   284    14.2   860.6    0.00 
 110   16:00   0.43   71.8    13    7.6   277    13.5   860.6    0.00 
 110   16:10   0.44   71.0    16    6.8   298    10.2   860.5    0.00 
 110   16:20   0.41   71.4    14    5.5   276     8.7   860.4    0.00 
 110   16:30   0.36   71.6    16    4.3   310     7.2   860.3    0.00 
 110   16:40   0.34   71.0    16    4.1   311    12.4   860.2    0.00 
 110   16:50   0.31   72.3    12    2.8   291     8.8   860.2    0.00 
 110   17:00   0.26   70.4    18    3.6   334     7.0   860.2    0.00 
 110   17:10   0.22   69.9    20    2.3   336     3.3   860.1    0.00 
 110   17:20   0.17   67.5    27    4.2   345     5.6   860.0    0.00 
 110   17:30   0.13   67.0    24    4.4   343    11.4   859.9    0.00 
 110   17:40   0.10   64.9    28    4.1   339     5.5   859.7    0.00 
 110   17:50   0.06   63.8    25    3.2   322     3.9   859.7    0.00 
 110   18:00   0.04   63.8    24    2.3   306     4.2   859.6    0.00 
 110   18:10   0.03   61.8    26    2.5   256     4.1   859.5    0.00 
 110   18:20   0.02   58.6    29    4.6   244     6.0   859.4    0.00 
 110   18:30   0.01   57.8    24    6.2   257     7.6   859.3    0.00 
 110   18:40   0.01   57.5    24    6.1   255     7.2   859.3    0.00 
 110   18:50   0.00   56.2    25    5.8   253     6.9   859.3    0.00 
 110   19:00   0.00   55.0    27    5.2   246     6.1   859.2    0.00 
 110   19:10   0.00   54.0    29    6.1   247     6.5   859.3    0.00 
 110   19:20   0.00   53.7    29    6.2   250     6.9   859.3    0.00 
 110   19:30   0.00   52.7    30    6.4   253     7.2   859.3    0.00 
 110   19:40   0.00   52.5    31    6.4   251     7.7   859.3    0.00 
 110   19:50   0.00   52.4    31    5.6   247     6.4   859.4    0.00 
 110   20:00   0.00   52.4    30    6.1   251     7.3   859.5    0.00 
 110   20:10   0.00   52.8    28    7.3   258     9.1   859.5    0.00 
 110   20:20   0.00   51.5    32    4.6   313     8.1   859.6    0.00 
 110   20:30   0.00   48.8    44    0.7   334     2.0   859.8    0.00 
 110   20:40   0.00   48.0    44    0.5   318     1.6   859.8    0.00 
 110   20:50   0.00   48.7    41    0.9   321     1.9   859.9    0.00 
 110   21:00   0.00   46.4    45    0.1   332     1.0   860.0    0.00 
 110   21:10   0.00   45.6    49    0.0     0     0.0   860.0    0.00 
 110   21:20   0.00   46.9    55    0.3   326     1.5   860.1    0.00 
 110   21:30   0.00   46.5    54    1.9   310     3.2   860.1    0.00 
 110   21:40   0.00   46.6    46    2.2   331     3.1   860.2    0.00 
 110   21:50   0.00   45.3    45    4.0   307     6.0   860.3    0.00 
 110   22:00   0.00   42.8    48    5.9   341     7.2   860.4    0.00 
 110   22:10   0.00   41.1    51    5.8   315     6.7   860.5    0.00 
 110   22:20   0.00   40.5    50    5.1   311     7.0   860.5    0.00 
 110   22:30   0.00   43.3    46    3.2   281     4.5   860.5    0.00 
 110   22:40   0.00   45.0    51    2.6   268     3.5   860.5    0.00 
 110   22:50   0.00   45.9    46    2.5   282     3.4   860.5    0.00 
 110   23:00   0.00   45.7    46    3.2   298     5.1   860.6    0.00 
 110   23:10   0.00   45.2    40    5.2   313     6.7   860.6    0.00 
 110   23:20   0.00   47.0    36    6.4   321     8.0   860.6    0.00 
 110   23:30   0.00   46.7    38    6.0   324     7.9   860.6    0.00 
 110   23:40   0.00   47.2    38    6.5   324     7.5   860.6    0.00 
 110   23:50   0.00   47.1    39    5.4   332     7.2   860.6    0.00 
 111    0:00   0.00   46.3    39    3.7   334     6.2   860.6    0.00 
 111    0:10   0.00   46.2    43    3.5   350     5.0   860.6    0.00 
 111    0:20   0.00   47.2    43    4.7   358     5.6   860.5    0.00 
 111    0:30   0.00   47.3    44    3.8     6     5.4   860.5    0.00 
 111    0:40   0.00   44.8    53    3.3   153     5.3   860.5    0.00 
 111    0:50   0.00   43.6    64    1.3   174     2.6   860.5    0.00 
 111    1:00   0.00   40.8    72    1.8   171     2.9   860.5    0.00 
 111    1:10   0.00   39.7    74    1.0   178     2.6   860.5    0.00 
 111    1:20   0.00   39.9    66    2.1   206     3.9   860.5    0.00 
 111    1:30   0.00   38.8    63    2.3   214     3.2   860.5    0.00 
 111    1:40   0.00   38.4    62    4.6   260     6.0   860.4    0.00 

Return to Paradise Valley graphs page.


Western Regional Climate Center,wrcc@dri.edu